createdAt,value
2022-11-13T00:00:17.178Z,1027.58
2022-11-13T00:01:17.160Z,1027.50
2022-11-13T00:02:17.206Z,1027.56
2022-11-13T00:03:17.130Z,1027.53
2022-11-13T00:04:17.122Z,1027.54
2022-11-13T00:05:17.117Z,1027.49
2022-11-13T00:06:17.111Z,1027.50
2022-11-13T00:07:17.255Z,1027.49
2022-11-13T00:08:17.084Z,1027.45
2022-11-13T00:09:17.075Z,1027.48
2022-11-13T00:10:17.076Z,1027.46
2022-11-13T00:11:17.100Z,1027.43
2022-11-13T00:12:17.050Z,1027.47
2022-11-13T00:13:17.022Z,1027.45
2022-11-13T00:14:17.021Z,1027.46
2022-11-13T00:15:17.019Z,1027.45
2022-11-13T00:16:16.990Z,1027.43
2022-11-13T00:17:17.011Z,1027.44
2022-11-13T00:18:16.975Z,1027.37
2022-11-13T00:19:16.975Z,1027.45
2022-11-13T00:20:16.967Z,1027.40
2022-11-13T00:21:16.989Z,1027.39
2022-11-13T00:22:16.939Z,1027.47
2022-11-13T00:23:17.047Z,1027.47
2022-11-13T00:24:16.915Z,1027.49
2022-11-13T00:25:16.916Z,1027.42
2022-11-13T00:26:16.893Z,1027.43
2022-11-13T00:27:16.893Z,1027.38
2022-11-13T00:28:16.904Z,1027.38
2022-11-13T00:29:16.869Z,1027.36
2022-11-13T00:30:19.462Z,1027.38
2022-11-13T00:31:16.847Z,1027.38
2022-11-13T00:32:16.841Z,1027.28
2022-11-13T00:33:37.879Z,1027.32
2022-11-13T00:34:45.801Z,1027.36
2022-11-13T00:35:17.832Z,1027.30
2022-11-13T00:36:16.805Z,1027.35
2022-11-13T00:37:16.794Z,1027.30
2022-11-13T00:38:16.764Z,1027.32
2022-11-13T00:39:16.894Z,1027.30
2022-11-13T00:40:16.740Z,1027.29
2022-11-13T00:41:16.748Z,1027.29
2022-11-13T00:42:16.724Z,1027.26
2022-11-13T00:43:16.752Z,1027.23
2022-11-13T00:44:16.691Z,1027.23
2022-11-13T00:45:16.688Z,1027.23
2022-11-13T00:46:16.693Z,1027.24
2022-11-13T00:47:16.671Z,1027.23
2022-11-13T00:48:16.657Z,1027.23
2022-11-13T00:49:16.685Z,1027.22
2022-11-13T00:50:16.636Z,1027.25
2022-11-13T00:51:16.630Z,1027.22
2022-11-13T00:52:16.620Z,1027.17
2022-11-13T00:53:18.191Z,1027.21
2022-11-13T00:54:16.590Z,1027.20
2022-11-13T00:55:16.717Z,1027.24
2022-11-13T00:56:16.589Z,1027.20
2022-11-13T00:57:16.570Z,1027.24
2022-11-13T00:58:16.542Z,1027.24
2022-11-13T00:59:16.548Z,1027.18
2022-11-13T01:00:16.538Z,1027.22
2022-11-13T01:01:16.608Z,1027.23
2022-11-13T01:02:16.537Z,1027.13
2022-11-13T01:03:16.503Z,1027.19
2022-11-13T01:04:16.513Z,1027.12
2022-11-13T01:05:16.471Z,1027.14
2022-11-13T01:06:16.463Z,1027.10
2022-11-13T01:07:16.536Z,1027.13
2022-11-13T01:08:16.445Z,1027.10
2022-11-13T01:09:16.466Z,1027.13
2022-11-13T01:10:16.435Z,1027.02
2022-11-13T01:11:16.534Z,1027.01
2022-11-13T01:12:16.397Z,1027.00
2022-11-13T01:13:16.390Z,1026.92
2022-11-13T01:14:16.384Z,1026.96
2022-11-13T01:15:16.374Z,1026.94
2022-11-13T01:16:16.358Z,1026.91
2022-11-13T01:17:16.354Z,1027.02
2022-11-13T01:18:16.343Z,1026.95
2022-11-13T01:19:16.333Z,1026.95
2022-11-13T01:20:16.326Z,1026.93
2022-11-13T01:21:16.323Z,1026.89
2022-11-13T01:22:16.293Z,1026.92
2022-11-13T01:23:16.331Z,1026.92
2022-11-13T01:24:16.292Z,1026.82
2022-11-13T01:25:16.261Z,1026.85
2022-11-13T01:26:16.267Z,1027.00
2022-11-13T01:27:16.371Z,1026.90
2022-11-13T01:28:16.235Z,1026.95
2022-11-13T01:29:16.261Z,1026.91
2022-11-13T01:30:16.215Z,1026.90
2022-11-13T01:31:16.210Z,1026.89
2022-11-13T01:32:16.202Z,1026.91
2022-11-13T01:33:16.189Z,1026.91
2022-11-13T01:34:16.163Z,1026.88
2022-11-13T01:35:16.201Z,1026.90
2022-11-13T01:36:16.155Z,1026.90
2022-11-13T01:37:16.154Z,1026.89
2022-11-13T01:38:16.134Z,1026.93
2022-11-13T01:39:16.139Z,1026.89
2022-11-13T01:40:16.105Z,1026.89
2022-11-13T01:41:21.840Z,1026.91
2022-11-13T01:42:17.091Z,1026.84
2022-11-13T01:43:16.212Z,1026.77
2022-11-13T01:44:16.078Z,1026.74
2022-11-13T01:45:16.073Z,1026.86
2022-11-13T01:46:16.053Z,1026.77
2022-11-13T01:47:16.041Z,1026.77
2022-11-13T01:48:16.020Z,1026.85
2022-11-13T01:49:16.011Z,1026.80
2022-11-13T01:50:16.010Z,1026.76
2022-11-13T01:51:16.000Z,1026.76
2022-11-13T01:52:15.990Z,1026.74
2022-11-13T01:53:15.965Z,1026.73
2022-11-13T01:54:15.979Z,1026.87
2022-11-13T01:55:15.962Z,1026.84
2022-11-13T01:56:15.939Z,1026.82
2022-11-13T01:57:15.989Z,1026.87
2022-11-13T01:58:15.930Z,1026.85
2022-11-13T01:59:16.036Z,1026.86
2022-11-13T02:00:15.896Z,1026.83
2022-11-13T02:01:15.911Z,1026.83
2022-11-13T02:02:15.898Z,1026.85
2022-11-13T02:03:15.879Z,1026.78
2022-11-13T02:04:15.856Z,1026.81
2022-11-13T02:05:15.848Z,1026.75
2022-11-13T02:06:15.840Z,1026.74
2022-11-13T02:07:15.894Z,1026.70
2022-11-13T02:08:15.836Z,1026.70
2022-11-13T02:09:15.804Z,1026.69
2022-11-13T02:10:15.800Z,1026.71
2022-11-13T02:11:15.800Z,1026.66
2022-11-13T02:12:15.772Z,1026.69
2022-11-13T02:13:15.779Z,1026.65
2022-11-13T02:14:15.763Z,1026.67
2022-11-13T02:15:15.850Z,1026.65
2022-11-13T02:16:15.736Z,1026.67
2022-11-13T02:17:15.724Z,1026.61
2022-11-13T02:18:15.740Z,1026.68
2022-11-13T02:19:15.738Z,1026.63
2022-11-13T02:20:15.683Z,1026.59
2022-11-13T02:21:15.676Z,1026.63
2022-11-13T02:22:15.662Z,1026.64
2022-11-13T02:23:15.658Z,1026.60
2022-11-13T02:24:15.669Z,1026.56
2022-11-13T02:25:15.646Z,1026.54
2022-11-13T02:26:15.648Z,1026.55
2022-11-13T02:27:15.630Z,1026.54
2022-11-13T02:28:15.604Z,1026.49
2022-11-13T02:29:15.601Z,1026.51
2022-11-13T02:30:16.458Z,1026.49
2022-11-13T02:31:15.690Z,1026.48
2022-11-13T02:32:15.568Z,1026.48
2022-11-13T02:33:15.545Z,1026.51
2022-11-13T02:34:15.562Z,1026.52
2022-11-13T02:35:15.551Z,1026.51
2022-11-13T02:36:15.519Z,1026.46
2022-11-13T02:37:15.514Z,1026.43
2022-11-13T02:38:15.528Z,1026.45
2022-11-13T02:39:15.491Z,1026.43
2022-11-13T02:40:15.481Z,1026.43
2022-11-13T02:41:15.474Z,1026.41
2022-11-13T02:42:15.462Z,1026.36
2022-11-13T02:43:15.472Z,1026.34
2022-11-13T02:44:15.455Z,1026.33
2022-11-13T02:45:15.435Z,1026.32
2022-11-13T02:46:15.434Z,1026.32
2022-11-13T02:47:15.523Z,1026.25
2022-11-13T02:48:15.456Z,1026.24
2022-11-13T02:49:15.383Z,1026.20
2022-11-13T02:50:15.386Z,1026.20
2022-11-13T02:51:15.386Z,1026.13
2022-11-13T02:52:15.412Z,1026.19
2022-11-13T02:53:15.342Z,1026.26
2022-11-13T02:54:17.097Z,1026.28
2022-11-13T02:55:15.328Z,1026.27
2022-11-13T02:56:15.308Z,1026.26
2022-11-13T02:57:15.307Z,1026.23
2022-11-13T02:58:15.327Z,1026.24
2022-11-13T02:59:15.274Z,1026.20
2022-11-13T03:00:15.289Z,1026.15
2022-11-13T03:01:15.351Z,1026.24
2022-11-13T03:02:15.246Z,1026.24
2022-11-13T03:03:29.069Z,1026.20
2022-11-13T03:04:16.239Z,1026.18
2022-11-13T03:05:15.222Z,1026.22
2022-11-13T03:06:15.216Z,1026.23
2022-11-13T03:07:15.223Z,1026.20
2022-11-13T03:08:15.184Z,1026.24
2022-11-13T03:09:15.172Z,1026.15
2022-11-13T03:10:15.218Z,1026.11
2022-11-13T03:11:15.190Z,1026.17
2022-11-13T03:12:15.143Z,1026.08
2022-11-13T03:13:15.130Z,1026.10
2022-11-13T03:14:15.119Z,1026.10
2022-11-13T03:15:15.123Z,1026.07
2022-11-13T03:16:15.094Z,1026.07
2022-11-13T03:17:15.092Z,1026.16
2022-11-13T03:18:15.092Z,1026.10
2022-11-13T03:19:15.203Z,1026.14
2022-11-13T03:20:15.056Z,1026.15
2022-11-13T03:21:15.043Z,1026.11
2022-11-13T03:22:15.034Z,1026.07
2022-11-13T03:23:15.027Z,1026.04
2022-11-13T03:24:15.011Z,1026.03
2022-11-13T03:25:15.025Z,1026.01
2022-11-13T03:26:14.994Z,1026.02
2022-11-13T03:27:14.975Z,1026.02
2022-11-13T03:28:15.006Z,1026.06
2022-11-13T03:29:14.974Z,1026.06
2022-11-13T03:30:14.952Z,1026.09
2022-11-13T03:31:14.946Z,1026.01
2022-11-13T03:32:14.931Z,1026.08
2022-11-13T03:33:14.920Z,1026.10
2022-11-13T03:34:14.908Z,1026.03
2022-11-13T03:35:15.022Z,1026.07
2022-11-13T03:36:14.893Z,1026.14
2022-11-13T03:37:14.885Z,1026.07
2022-11-13T03:38:14.881Z,1026.07
2022-11-13T03:39:14.855Z,1026.10
2022-11-13T03:40:14.845Z,1026.17
2022-11-13T03:41:14.853Z,1026.09
2022-11-13T03:42:14.830Z,1026.06
2022-11-13T03:43:14.814Z,1026.07
2022-11-13T03:44:14.819Z,1026.06
2022-11-13T03:45:14.785Z,1026.12
2022-11-13T03:46:14.812Z,1026.10
2022-11-13T03:47:14.802Z,1026.14
2022-11-13T03:48:14.761Z,1026.15
2022-11-13T03:49:14.767Z,1026.14
2022-11-13T03:50:14.748Z,1026.14
2022-11-13T03:51:14.838Z,1026.12
2022-11-13T03:52:14.733Z,1026.17
2022-11-13T03:53:14.701Z,1026.13
2022-11-13T03:54:14.721Z,1026.11
2022-11-13T03:55:14.687Z,1026.09
2022-11-13T03:56:14.679Z,1026.20
2022-11-13T03:57:14.670Z,1026.14
2022-11-13T03:58:14.659Z,1026.16
2022-11-13T03:59:14.646Z,1026.12
2022-11-13T04:00:14.638Z,1026.07
2022-11-13T04:01:14.656Z,1026.14
2022-11-13T04:02:14.614Z,1026.15
2022-11-13T04:03:14.611Z,1026.14
2022-11-13T04:04:14.585Z,1026.09
2022-11-13T04:05:17.526Z,1026.14
2022-11-13T04:06:15.576Z,1026.13
2022-11-13T04:07:14.754Z,1026.04
2022-11-13T04:08:14.550Z,1026.07
2022-11-13T04:09:14.547Z,1026.10
2022-11-13T04:10:14.546Z,1026.12
2022-11-13T04:11:14.520Z,1026.06
2022-11-13T04:12:14.527Z,1026.11
2022-11-13T04:13:14.510Z,1026.08
2022-11-13T04:14:14.489Z,1026.07
2022-11-13T04:15:14.480Z,1025.98
2022-11-13T04:16:14.470Z,1026.00
2022-11-13T04:17:14.463Z,1026.01
2022-11-13T04:18:14.486Z,1025.99
2022-11-13T04:19:14.454Z,1025.96
2022-11-13T04:20:14.432Z,1025.98
2022-11-13T04:21:14.414Z,1025.95
2022-11-13T04:22:14.401Z,1025.89
2022-11-13T04:23:14.498Z,1025.91
2022-11-13T04:24:14.400Z,1025.84
2022-11-13T04:25:14.368Z,1025.88
2022-11-13T04:26:14.357Z,1025.84
2022-11-13T04:27:14.358Z,1025.82
2022-11-13T04:28:14.361Z,1025.87
2022-11-13T04:29:14.323Z,1025.80
2022-11-13T04:30:14.330Z,1025.83
2022-11-13T04:31:14.354Z,1025.88
2022-11-13T04:32:14.304Z,1025.88
2022-11-13T04:33:14.284Z,1025.85
2022-11-13T04:34:14.284Z,1025.85
2022-11-13T04:35:14.257Z,1025.80
2022-11-13T04:36:14.253Z,1025.81
2022-11-13T04:37:14.261Z,1025.75
2022-11-13T04:38:14.239Z,1025.75
2022-11-13T04:39:14.321Z,1025.78
2022-11-13T04:40:14.219Z,1025.78
2022-11-13T04:41:14.204Z,1025.77
2022-11-13T04:42:14.225Z,1025.77
2022-11-13T04:43:14.187Z,1025.88
2022-11-13T04:44:21.791Z,1025.80
2022-11-13T04:45:14.208Z,1025.81
2022-11-13T04:46:14.181Z,1025.79
2022-11-13T04:47:14.151Z,1025.86
2022-11-13T04:48:14.157Z,1025.75
2022-11-13T04:49:14.123Z,1025.76
2022-11-13T04:50:14.122Z,1025.74
2022-11-13T04:51:14.099Z,1025.80
2022-11-13T04:52:14.097Z,1025.78
2022-11-13T04:53:14.073Z,1025.79
2022-11-13T04:54:14.076Z,1025.80
2022-11-13T04:55:14.169Z,1025.80
2022-11-13T04:56:14.045Z,1025.83
2022-11-13T04:57:14.039Z,1025.88
2022-11-13T04:58:14.014Z,1025.81
2022-11-13T04:59:14.009Z,1025.78
2022-11-13T05:00:14.018Z,1025.83
2022-11-13T05:01:13.998Z,1025.75
2022-11-13T05:02:13.999Z,1025.78
2022-11-13T05:03:13.971Z,1025.82
2022-11-13T05:04:13.961Z,1025.84
2022-11-13T05:05:13.957Z,1025.81
2022-11-13T05:06:13.942Z,1025.83
2022-11-13T05:07:13.966Z,1025.84
2022-11-13T05:08:13.916Z,1025.81
2022-11-13T05:09:13.910Z,1025.84
2022-11-13T05:10:13.925Z,1025.76
2022-11-13T05:11:14.003Z,1025.73
2022-11-13T05:12:13.870Z,1025.78
2022-11-13T05:13:13.885Z,1025.83
2022-11-13T05:14:13.858Z,1025.78
2022-11-13T05:15:13.856Z,1025.77
2022-11-13T05:16:13.825Z,1025.75
2022-11-13T05:17:13.826Z,1025.71
2022-11-13T05:18:13.808Z,1025.72
2022-11-13T05:19:13.813Z,1025.68
2022-11-13T05:20:13.797Z,1025.72
2022-11-13T05:21:13.800Z,1025.74
2022-11-13T05:22:13.780Z,1025.71
2022-11-13T05:23:13.802Z,1025.72
2022-11-13T05:24:13.738Z,1025.75
2022-11-13T05:25:13.737Z,1025.74
2022-11-13T05:26:13.730Z,1025.77
2022-11-13T05:27:17.360Z,1025.73
2022-11-13T05:28:23.323Z,1025.74
2022-11-13T05:29:13.720Z,1025.76
2022-11-13T05:30:13.704Z,1025.73
2022-11-13T05:31:13.691Z,1025.69
2022-11-13T05:32:13.658Z,1025.73
2022-11-13T05:33:13.653Z,1025.72
2022-11-13T05:34:13.668Z,1025.67
2022-11-13T05:35:13.630Z,1025.74
2022-11-13T05:36:13.623Z,1025.72
2022-11-13T05:37:13.674Z,1025.77
2022-11-13T05:38:13.604Z,1025.76
2022-11-13T05:39:13.592Z,1025.72
2022-11-13T05:40:13.589Z,1025.74
2022-11-13T05:41:13.578Z,1025.74
2022-11-13T05:42:13.548Z,1025.75
2022-11-13T05:43:13.654Z,1025.73
2022-11-13T05:44:13.571Z,1025.74
2022-11-13T05:45:13.543Z,1025.67
2022-11-13T05:46:13.510Z,1025.70
2022-11-13T05:47:13.498Z,1025.75
2022-11-13T05:48:13.490Z,1025.75
2022-11-13T05:49:13.490Z,1025.75
2022-11-13T05:50:13.494Z,1025.74
2022-11-13T05:51:13.469Z,1025.71
2022-11-13T05:52:13.448Z,1025.73
2022-11-13T05:53:13.450Z,1025.72
2022-11-13T05:54:13.430Z,1025.69
2022-11-13T05:55:13.423Z,1025.70
2022-11-13T05:56:13.441Z,1025.66
2022-11-13T05:57:13.402Z,1025.64
2022-11-13T05:58:13.390Z,1025.65
2022-11-13T05:59:13.508Z,1025.63
2022-11-13T06:00:13.370Z,1025.63
2022-11-13T06:01:13.370Z,1025.72
2022-11-13T06:02:13.407Z,1025.69
2022-11-13T06:03:13.371Z,1025.66
2022-11-13T06:04:13.334Z,1025.59
2022-11-13T06:05:13.310Z,1025.61
2022-11-13T06:06:13.314Z,1025.59
2022-11-13T06:07:13.362Z,1025.55
2022-11-13T06:08:13.295Z,1025.50
2022-11-13T06:09:13.265Z,1025.51
2022-11-13T06:10:13.264Z,1025.49
2022-11-13T06:11:13.254Z,1025.53
2022-11-13T06:12:13.238Z,1025.47
2022-11-13T06:13:13.273Z,1025.42
2022-11-13T06:14:13.225Z,1025.39
2022-11-13T06:15:13.323Z,1025.43
2022-11-13T06:16:13.204Z,1025.44
2022-11-13T06:17:13.201Z,1025.45
2022-11-13T06:18:13.177Z,1025.43
2022-11-13T06:19:13.182Z,1025.45
2022-11-13T06:20:13.156Z,1025.40
2022-11-13T06:21:13.185Z,1025.40
2022-11-13T06:22:13.126Z,1025.36
2022-11-13T06:23:13.120Z,1025.39
2022-11-13T06:24:13.128Z,1025.40
2022-11-13T06:25:13.115Z,1025.41
2022-11-13T06:26:13.093Z,1025.37
2022-11-13T06:27:13.082Z,1025.36
2022-11-13T06:28:13.121Z,1025.36
2022-11-13T06:29:13.065Z,1025.35
2022-11-13T06:30:13.063Z,1025.38
2022-11-13T06:31:13.154Z,1025.37
2022-11-13T06:32:13.053Z,1025.32
2022-11-13T06:33:13.026Z,1025.28
2022-11-13T06:34:13.010Z,1025.30
2022-11-13T06:35:13.018Z,1025.29
2022-11-13T06:36:12.984Z,1025.30
2022-11-13T06:37:12.994Z,1025.28
2022-11-13T06:38:12.966Z,1025.33
2022-11-13T06:39:13.068Z,1025.30
2022-11-13T06:40:12.951Z,1025.29
2022-11-13T06:41:12.937Z,1025.28
2022-11-13T06:42:12.943Z,1025.35
2022-11-13T06:43:12.923Z,1025.31
2022-11-13T06:44:12.912Z,1025.28
2022-11-13T06:45:12.937Z,1025.26
2022-11-13T06:46:12.909Z,1025.24
2022-11-13T06:47:12.905Z,1025.26
2022-11-13T06:48:12.866Z,1025.25
2022-11-13T06:49:12.867Z,1025.17
2022-11-13T06:50:12.844Z,1025.20
2022-11-13T06:51:12.824Z,1025.28
2022-11-13T06:52:12.866Z,1025.24
2022-11-13T06:53:12.845Z,1025.21
2022-11-13T06:54:12.805Z,1025.17
2022-11-13T06:55:12.791Z,1025.19
2022-11-13T06:56:12.781Z,1025.23
2022-11-13T06:57:12.783Z,1025.24
2022-11-13T06:58:12.761Z,1025.19
2022-11-13T06:59:12.768Z,1025.18
2022-11-13T07:00:12.757Z,1025.21
2022-11-13T07:01:12.827Z,1025.22
2022-11-13T07:02:12.726Z,1025.20
2022-11-13T07:03:12.819Z,1025.22
2022-11-13T07:04:12.696Z,1025.20
2022-11-13T07:05:12.674Z,1025.20
2022-11-13T07:06:12.709Z,1025.23
2022-11-13T07:07:12.701Z,1025.16
2022-11-13T07:08:12.670Z,1025.15
2022-11-13T07:09:12.639Z,1025.16
2022-11-13T07:10:12.625Z,1025.17
2022-11-13T07:11:12.628Z,1025.14
2022-11-13T07:12:12.620Z,1025.22
2022-11-13T07:13:12.608Z,1025.21
2022-11-13T07:14:12.624Z,1025.14
2022-11-13T07:15:12.586Z,1025.14
2022-11-13T07:16:17.536Z,1025.10
2022-11-13T07:17:13.549Z,1025.07
2022-11-13T07:18:12.539Z,1025.09
2022-11-13T07:19:12.641Z,1025.08
2022-11-13T07:20:12.538Z,1025.05
2022-11-13T07:21:12.534Z,1025.07
2022-11-13T07:22:12.514Z,1025.02
2022-11-13T07:23:20.161Z,1025.03
2022-11-13T07:24:16.741Z,1025.02
2022-11-13T07:25:12.509Z,1025.05
2022-11-13T07:26:12.486Z,1025.02
2022-11-13T07:27:12.448Z,1025.07
2022-11-13T07:28:12.438Z,1025.11
2022-11-13T07:29:12.441Z,1025.14
2022-11-13T07:30:12.454Z,1025.11
2022-11-13T07:31:12.427Z,1025.10
2022-11-13T07:32:12.401Z,1025.09
2022-11-13T07:33:12.396Z,1025.08
2022-11-13T07:34:12.386Z,1025.09
2022-11-13T07:35:12.503Z,1025.10
2022-11-13T07:36:12.363Z,1025.06
2022-11-13T07:37:12.348Z,1025.11
2022-11-13T07:38:12.360Z,1025.11
2022-11-13T07:39:12.322Z,1025.10
2022-11-13T07:40:12.311Z,1025.07
2022-11-13T07:41:12.342Z,1025.10
2022-11-13T07:42:12.293Z,1025.13
2022-11-13T07:43:12.277Z,1025.12
2022-11-13T07:44:21.906Z,1025.11
2022-11-13T07:45:13.277Z,1025.11
2022-11-13T07:46:12.264Z,1025.10
2022-11-13T07:47:12.268Z,1025.13
2022-11-13T07:48:12.231Z,1025.11
2022-11-13T07:49:12.227Z,1025.16
2022-11-13T07:50:12.220Z,1025.18
2022-11-13T07:51:12.335Z,1025.20
2022-11-13T07:52:12.190Z,1025.09
2022-11-13T07:53:12.205Z,1025.06
2022-11-13T07:54:12.164Z,1025.06
2022-11-13T07:55:12.162Z,1025.03
2022-11-13T07:56:12.141Z,1025.05
2022-11-13T07:57:35.972Z,1025.08
2022-11-13T07:58:35.938Z,1025.02
2022-11-13T07:59:35.938Z,1025.01
2022-11-13T08:00:36.049Z,1025.00
2022-11-13T08:01:35.912Z,1025.07
2022-11-13T08:02:35.882Z,1024.99
2022-11-13T08:03:35.900Z,1025.02
2022-11-13T08:04:35.865Z,1024.96
2022-11-13T08:05:35.845Z,1025.00
2022-11-13T08:06:35.945Z,1024.98
2022-11-13T08:07:35.828Z,1025.01
2022-11-13T08:08:35.839Z,1024.97
2022-11-13T08:09:35.819Z,1024.92
2022-11-13T08:10:35.818Z,1024.98
2022-11-13T08:11:35.821Z,1024.97
2022-11-13T08:12:35.772Z,1024.93
2022-11-13T08:13:35.799Z,1024.93
2022-11-13T08:14:35.771Z,1024.90
2022-11-13T08:15:35.751Z,1024.92
2022-11-13T08:16:35.745Z,1024.93
2022-11-13T08:17:35.734Z,1024.93
2022-11-13T08:18:35.737Z,1024.88
2022-11-13T08:19:35.706Z,1024.87
2022-11-13T08:20:35.691Z,1024.92
2022-11-13T08:21:35.700Z,1024.91
2022-11-13T08:22:35.801Z,1024.91
2022-11-13T08:23:35.668Z,1024.86
2022-11-13T08:24:35.669Z,1024.91
2022-11-13T08:25:35.648Z,1024.91
2022-11-13T08:26:35.653Z,1024.96
2022-11-13T08:27:35.635Z,1024.85
2022-11-13T08:28:35.608Z,1024.86
2022-11-13T08:29:35.601Z,1024.92
2022-11-13T08:30:35.608Z,1024.95
2022-11-13T08:31:35.583Z,1024.90
2022-11-13T08:32:35.577Z,1024.89
2022-11-13T08:33:35.563Z,1024.99
2022-11-13T08:34:35.553Z,1024.93
2022-11-13T08:35:35.539Z,1024.94
2022-11-13T08:36:35.527Z,1024.88
2022-11-13T08:37:35.555Z,1024.97
2022-11-13T08:38:35.645Z,1024.89
2022-11-13T08:39:35.508Z,1024.93
2022-11-13T08:40:35.523Z,1024.98
2022-11-13T08:41:35.485Z,1024.93
2022-11-13T08:42:35.465Z,1024.93
2022-11-13T08:43:35.460Z,1024.96
2022-11-13T08:44:35.433Z,1024.92
2022-11-13T08:45:35.432Z,1024.95
2022-11-13T08:46:35.421Z,1024.86
2022-11-13T08:47:35.418Z,1024.91
2022-11-13T08:48:35.419Z,1024.86
2022-11-13T08:49:35.394Z,1024.80
2022-11-13T08:50:35.371Z,1024.84
2022-11-13T08:51:35.362Z,1024.87
2022-11-13T08:52:35.365Z,1024.88
2022-11-13T08:53:35.369Z,1024.88
2022-11-13T08:54:35.438Z,1024.90
2022-11-13T08:55:35.324Z,1024.86
2022-11-13T08:56:35.308Z,1024.86
2022-11-13T08:57:35.303Z,1024.92
2022-11-13T08:58:35.305Z,1024.81
2022-11-13T08:59:35.331Z,1024.88
2022-11-13T09:00:35.272Z,1024.82
2022-11-13T09:01:35.256Z,1024.89
2022-11-13T09:02:35.263Z,1024.93
2022-11-13T09:03:35.260Z,1024.85
2022-11-13T09:04:35.249Z,1024.85
2022-11-13T09:05:35.214Z,1024.84
2022-11-13T09:06:35.236Z,1024.87
2022-11-13T09:07:35.258Z,1024.84
2022-11-13T09:08:35.210Z,1024.81
2022-11-13T09:09:35.165Z,1024.82
2022-11-13T09:10:35.284Z,1024.81
2022-11-13T09:11:35.166Z,1024.77
2022-11-13T09:12:35.144Z,1024.75
2022-11-13T09:13:37.553Z,1024.71
2022-11-13T09:14:36.121Z,1024.72
2022-11-13T09:15:35.148Z,1024.77
2022-11-13T09:16:35.097Z,1024.73
2022-11-13T09:17:35.113Z,1024.77
2022-11-13T09:18:35.086Z,1024.76
2022-11-13T09:19:35.075Z,1024.73
2022-11-13T09:20:35.045Z,1024.74
2022-11-13T09:21:35.039Z,1024.74
2022-11-13T09:22:35.039Z,1024.73
2022-11-13T09:23:35.027Z,1024.73
2022-11-13T09:24:35.027Z,1024.72
2022-11-13T09:25:37.605Z,1024.75
2022-11-13T09:26:35.106Z,1024.77
2022-11-13T09:27:34.979Z,1024.70
2022-11-13T09:28:34.991Z,1024.71
2022-11-13T09:29:34.945Z,1024.72
2022-11-13T09:30:34.952Z,1024.75
2022-11-13T09:31:34.925Z,1024.70
2022-11-13T09:32:34.941Z,1024.68
2022-11-13T09:33:34.920Z,1024.68
2022-11-13T09:34:34.933Z,1024.69
2022-11-13T09:35:35.007Z,1024.71
2022-11-13T09:36:34.929Z,1024.70
2022-11-13T09:37:34.880Z,1024.74
2022-11-13T09:38:34.867Z,1024.72
2022-11-13T09:39:34.892Z,1024.74
2022-11-13T09:40:34.874Z,1024.77
2022-11-13T09:41:34.947Z,1024.76
2022-11-13T09:42:34.929Z,1024.80
2022-11-13T09:43:34.825Z,1024.74
2022-11-13T09:44:34.815Z,1024.72
2022-11-13T09:45:34.826Z,1024.77
2022-11-13T09:46:34.785Z,1024.82
2022-11-13T09:47:34.750Z,1024.78
2022-11-13T09:48:34.755Z,1024.77
2022-11-13T09:49:34.738Z,1024.67
2022-11-13T09:50:43.217Z,1024.66
2022-11-13T09:51:34.805Z,1024.70
2022-11-13T09:52:34.756Z,1024.60
2022-11-13T09:53:34.704Z,1024.66
2022-11-13T09:54:34.751Z,1024.69
2022-11-13T09:55:34.682Z,1024.71
2022-11-13T09:56:34.675Z,1024.76
2022-11-13T09:57:34.831Z,1024.71
2022-11-13T09:58:34.660Z,1024.76
2022-11-13T09:59:34.638Z,1024.71
2022-11-13T10:00:34.626Z,1024.70
2022-11-13T10:01:34.687Z,1024.71
2022-11-13T10:02:34.602Z,1024.70
2022-11-13T10:05:45.129Z,1024.68
2022-11-13T10:06:53.657Z,1024.65
2022-11-13T10:07:45.092Z,1024.56
2022-11-13T10:08:52.938Z,1024.59
2022-11-13T10:09:54.700Z,1024.52
2022-11-13T10:11:56.696Z,1024.53
2022-11-13T10:14:08.063Z,1024.53
2022-11-13T10:15:16.639Z,1024.50
2022-11-13T10:16:15.637Z,1024.44
2022-11-13T10:17:16.341Z,1024.46
2022-11-13T10:18:16.569Z,1024.39
2022-11-13T10:19:18.306Z,1024.40
2022-11-13T10:20:15.169Z,1024.38
2022-11-13T10:21:15.488Z,1024.35
2022-11-13T10:22:34.638Z,1024.31
2022-11-13T10:23:08.933Z,1024.32
2022-11-13T10:24:17.956Z,1024.34
2022-11-13T10:25:15.454Z,1024.30
2022-11-13T10:27:18.212Z,1024.34
2022-11-13T10:29:28.635Z,1024.27
2022-11-13T10:30:36.294Z,1024.30
2022-11-13T10:31:36.403Z,1024.23
2022-11-13T10:33:41.059Z,1024.26
2022-11-13T10:34:40.987Z,1024.24
2022-11-13T10:35:50.887Z,1024.21
2022-11-13T10:36:52.197Z,1024.19
2022-11-13T10:38:52.333Z,1024.18
2022-11-13T10:41:03.158Z,1024.15
2022-11-13T10:42:12.997Z,1024.18
2022-11-13T10:43:11.587Z,1024.20
2022-11-13T10:44:14.239Z,1024.19
2022-11-13T10:45:27.185Z,1024.12
2022-11-13T10:46:13.745Z,1024.13
2022-11-13T10:48:14.447Z,1024.17
2022-11-13T10:50:25.037Z,1024.14
2022-11-13T10:52:43.263Z,1024.15
2022-11-13T10:54:54.638Z,1024.11
2022-11-13T10:56:04.365Z,1024.13
2022-11-13T10:57:02.569Z,1024.14
2022-11-13T10:58:05.790Z,1024.09
2022-11-13T11:00:07.005Z,1024.11
2022-11-13T11:01:14.630Z,1024.08
2022-11-13T11:02:15.513Z,1024.02
2022-11-13T11:04:19.255Z,1024.00
2022-11-13T12:23:13.918Z,1023.23
2022-11-13T12:24:13.781Z,1023.16
2022-11-13T12:25:13.826Z,1023.18
2022-11-13T12:26:13.801Z,1023.11
2022-11-13T12:27:21.306Z,1023.18
2022-11-13T12:28:22.310Z,1023.11
2022-11-13T12:29:21.960Z,1023.20
2022-11-13T12:30:14.149Z,1023.11
2022-11-13T12:31:14.148Z,1023.13
2022-11-13T12:32:13.952Z,1023.12
2022-11-13T12:33:13.745Z,1023.03
2022-11-13T12:34:13.664Z,1023.03
2022-11-13T12:35:13.666Z,1022.97
2022-11-13T12:36:13.670Z,1023.03
2022-11-13T12:37:13.657Z,1022.96
2022-11-13T12:38:13.632Z,1022.95
2022-11-13T12:39:13.730Z,1022.94
2022-11-13T12:40:13.613Z,1022.90
2022-11-13T12:41:13.578Z,1022.94
2022-11-13T12:42:13.587Z,1023.01
2022-11-13T12:43:13.576Z,1022.98
2022-11-13T12:44:13.559Z,1022.91
2022-11-13T12:45:13.590Z,1022.95
2022-11-13T12:46:13.529Z,1022.91
2022-11-13T12:47:13.537Z,1022.98
2022-11-13T12:48:13.507Z,1022.99
2022-11-13T12:49:13.505Z,1022.96
2022-11-13T12:50:13.491Z,1022.97
2022-11-13T12:51:13.487Z,1022.97
2022-11-13T12:52:13.466Z,1022.86
2022-11-13T12:53:13.471Z,1022.86
2022-11-13T12:54:13.450Z,1022.88
2022-11-13T12:55:13.552Z,1022.87
2022-11-13T12:56:13.450Z,1022.84
2022-11-13T12:57:13.421Z,1022.89
2022-11-13T12:58:13.413Z,1022.79
2022-11-13T12:59:30.413Z,1022.83
2022-11-13T13:01:24.506Z,1022.72
2022-11-13T13:02:24.367Z,1022.73
2022-11-13T13:03:24.386Z,1022.73
2022-11-13T13:04:24.339Z,1022.74
2022-11-13T13:05:24.351Z,1022.68
2022-11-13T13:06:24.298Z,1022.72
2022-11-13T13:07:24.432Z,1022.69
2022-11-13T13:08:33.901Z,1022.65
2022-11-13T13:09:24.385Z,1022.61
2022-11-13T13:10:24.356Z,1022.62
2022-11-13T13:11:24.238Z,1022.57
2022-11-13T13:12:24.246Z,1022.56
2022-11-13T13:13:24.806Z,1022.56
2022-11-13T13:14:24.275Z,1022.55
2022-11-13T13:15:24.189Z,1022.63
2022-11-13T13:16:24.209Z,1022.60
2022-11-13T13:17:24.219Z,1022.50
2022-11-13T13:18:24.162Z,1022.52
2022-11-13T13:19:24.168Z,1022.57
2022-11-13T13:20:24.142Z,1022.52
2022-11-13T13:21:24.130Z,1022.53
2022-11-13T13:22:24.137Z,1022.54
2022-11-13T13:23:24.128Z,1022.49
2022-11-13T13:24:24.136Z,1022.51
2022-11-13T13:25:24.140Z,1022.49
2022-11-13T13:26:24.191Z,1022.45
2022-11-13T13:27:24.089Z,1022.45
2022-11-13T13:28:24.101Z,1022.49
2022-11-13T13:29:24.123Z,1022.50
2022-11-13T13:30:24.057Z,1022.44
2022-11-13T13:31:24.025Z,1022.43
2022-11-13T13:32:24.043Z,1022.43
2022-11-13T13:33:24.009Z,1022.43
2022-11-13T13:34:23.993Z,1022.39
2022-11-13T13:35:23.987Z,1022.48
2022-11-13T13:36:24.009Z,1022.43
2022-11-13T13:37:23.984Z,1022.44
2022-11-13T13:38:23.958Z,1022.41
2022-11-13T13:39:23.945Z,1022.39
2022-11-13T13:40:23.922Z,1022.40
2022-11-13T13:41:23.947Z,1022.36
2022-11-13T13:42:24.033Z,1022.36